Time,TemperatureF,DewpointF,PressureIn,WindDirection,WindDirectionDegrees,WindSpeedMPH,WindSpeedGustMPH,Humidity,HourlyPrecipIn,Conditions,Clouds,dailyrainin,SoftwareType,DateUTC
2013-03-06 00:09:00,29.1,28.4,29.63,ENE,75,3.0,22.0,97,0.01,RA,SKC,0.01,WeatherDisplay:10.37,2013-03-06 05:09:00,
2013-03-06 00:19:00,29.0,28.3,29.63,ENE,61,8.0,22.0,97,0.01,RA,SKC,0.02,WeatherDisplay:10.37,2013-03-06 05:19:00,
2013-03-06 00:29:00,28.9,28.2,29.63,ENE,61,10.0,21.0,97,0.00,CLR,SKC,0.02,WeatherDisplay:10.37,2013-03-06 05:29:00,
2013-03-06 00:40:00,28.4,27.9,29.63,ENE,58,10.0,21.0,98,0.00,CLR,SKC,0.02,WeatherDisplay:10.37,2013-03-06 05:40:00,
2013-03-06 00:50:00,28.4,27.9,29.63,NE,54,9.0,22.0,98,0.01,RA,SKC,0.03,WeatherDisplay:10.37,2013-03-06 05:50:00,
2013-03-06 01:00:00,28.7,28.2,29.64,NE,56,8.0,22.0,98,0.00,CLR,SKC,0.03,WeatherDisplay:10.37,2013-03-06 06:00:00,
2013-03-06 01:10:00,28.3,27.8,29.65,NE,55,9.0,20.0,98,0.01,RA,SKC,0.04,WeatherDisplay:10.37,2013-03-06 06:10:00,
2013-03-06 01:20:00,28.1,27.4,29.65,NE,45,9.0,22.0,97,0.00,CLR,SKC,0.04,WeatherDisplay:10.37,2013-03-06 06:20:00,
2013-03-06 01:30:00,27.9,27.4,29.65,NE,49,7.0,21.0,98,0.00,CLR,SKC,0.04,WeatherDisplay:10.37,2013-03-06 06:30:00,
2013-03-06 01:40:00,28.9,28.2,29.65,NE,47,8.0,19.0,97,0.00,CLR,SKC,0.04,WeatherDisplay:10.37,2013-03-06 06:40:00,
2013-03-06 01:50:00,27.6,26.9,29.66,NE,48,10.0,22.0,97,0.00,CLR,SKC,0.04,WeatherDisplay:10.37,2013-03-06 06:50:00,
2013-03-06 02:00:00,28.0,27.3,29.67,NE,47,9.0,22.0,97,0.00,CLR,SKC,0.04,WeatherDisplay:10.37,2013-03-06 07:00:00,
2013-03-06 02:10:00,28.0,27.3,29.67,NE,49,5.0,24.0,97,0.01,RA,SKC,0.05,WeatherDisplay:10.37,2013-03-06 07:10:00,
2013-03-06 02:20:00,28.2,27.2,29.68,NE,49,13.0,25.0,96,0.00,CLR,SKC,0.05,WeatherDisplay:10.37,2013-03-06 07:20:00,
2013-03-06 02:30:00,28.4,27.4,29.69,ENE,60,9.0,22.0,96,0.00,CLR,SKC,0.05,WeatherDisplay:10.37,2013-03-06 07:30:00,
2013-03-06 02:40:00,27.4,26.1,29.69,NE,56,9.0,20.0,95,0.00,CLR,SKC,0.05,WeatherDisplay:10.37,2013-03-06 07:40:00,
2013-03-06 02:50:00,29.1,27.8,29.69,NE,45,8.0,17.0,95,0.00,CLR,SKC,0.05,WeatherDisplay:10.37,2013-03-06 07:50:00,
2013-03-06 03:00:00,29.1,27.8,29.70,NE,49,7.0,22.0,95,0.01,RA,SKC,0.06,WeatherDisplay:10.37,2013-03-06 08:00:00,
2013-03-06 03:10:00,28.9,27.2,29.70,NE,47,9.0,19.0,93,0.00,CLR,SKC,0.06,WeatherDisplay:10.37,2013-03-06 08:10:00,
2013-03-06 03:20:00,28.7,26.6,29.71,NE,51,9.0,18.0,92,0.00,CLR,SKC,0.06,WeatherDisplay:10.37,2013-03-06 08:20:00,
2013-03-06 03:30:00,29.0,27.5,29.71,NE,51,10.0,21.0,94,0.00,CLR,SKC,0.06,WeatherDisplay:10.37,2013-03-06 08:30:00,
2013-03-06 03:40:00,28.9,27.4,29.72,NE,42,6.0,20.0,94,0.00,CLR,SKC,0.06,WeatherDisplay:10.37,2013-03-06 08:40:00,
2013-03-06 03:50:00,29.3,27.2,29.72,NNE,32,7.0,15.0,92,0.00,CLR,SKC,0.06,WeatherDisplay:10.37,2013-03-06 08:50:00,
2013-03-06 04:00:00,28.7,26.6,29.73,NE,38,5.0,15.0,92,0.00,CLR,SKC,0.06,WeatherDisplay:10.37,2013-03-06 09:00:00,
2013-03-06 04:10:00,29.0,26.7,29.73,NE,40,3.0,15.0,91,0.00,CLR,SKC,0.06,WeatherDisplay:10.37,2013-03-06 09:10:00,
2013-03-06 04:20:00,28.5,26.7,29.74,NE,35,7.0,15.0,93,0.00,CLR,SKC,0.06,WeatherDisplay:10.37,2013-03-06 09:20:00,
2013-03-06 04:30:00,28.8,26.8,29.75,NNE,33,7.0,21.0,92,0.00,CLR,SKC,0.06,WeatherDisplay:10.37,2013-03-06 09:30:00,
2013-03-06 04:40:00,28.5,26.5,29.76,NNE,29,9.0,17.0,92,0.00,CLR,SKC,0.06,WeatherDisplay:10.37,2013-03-06 09:40:00,
2013-03-06 04:50:00,28.8,27.0,29.77,NNE,30,9.0,17.0,93,0.00,CLR,SKC,0.06,WeatherDisplay:10.37,2013-03-06 09:50:00,
2013-03-06 05:00:00,28.7,26.9,29.77,NNE,29,9.0,17.0,93,0.00,CLR,SKC,0.06,WeatherDisplay:10.37,2013-03-06 10:00:00,
2013-03-06 05:10:00,28.2,26.5,29.79,NNE,26,8.0,14.0,93,0.00,CLR,SKC,0.06,WeatherDisplay:10.37,2013-03-06 10:10:00,
2013-03-06 05:20:00,27.8,26.0,29.79,NNE,31,7.0,17.0,93,0.00,CLR,SKC,0.06,WeatherDisplay:10.37,2013-03-06 10:20:00,
2013-03-06 05:30:00,28.1,26.4,29.80,NNE,25,8.0,19.0,93,0.00,CLR,SKC,0.06,WeatherDisplay:10.37,2013-03-06 10:30:00,
2013-03-06 05:40:00,27.6,25.8,29.80,NNE,28,6.0,15.0,93,0.00,CLR,SKC,0.06,WeatherDisplay:10.37,2013-03-06 10:40:00,
2013-03-06 05:50:00,27.7,26.2,29.81,NNE,27,6.0,15.0,94,0.00,CLR,SKC,0.06,WeatherDisplay:10.37,2013-03-06 10:50:00,
2013-03-06 06:00:00,27.5,25.7,29.81,NNE,28,7.0,14.0,93,0.00,CLR,SKC,0.06,WeatherDisplay:10.37,2013-03-06 11:00:00,
2013-03-06 06:10:00,27.7,26.0,29.82,NNE,33,7.0,16.0,93,0.00,CLR,SKC,0.06,WeatherDisplay:10.37,2013-03-06 11:10:00,
2013-03-06 06:20:00,28.1,26.3,29.83,NNE,29,6.0,13.0,93,0.00,CLR,SKC,0.06,WeatherDisplay:10.37,2013-03-06 11:20:00,
2013-03-06 06:30:00,27.6,25.8,29.83,NNE,29,7.0,16.0,93,0.00,CLR,SKC,0.06,WeatherDisplay:10.37,2013-03-06 11:30:00,
2013-03-06 06:40:00,27.3,25.5,29.84,NNE,25,10.0,18.0,93,0.00,CLR,SKC,0.06,WeatherDisplay:10.37,2013-03-06 11:40:00,
2013-03-06 06:50:00,27.6,25.8,29.85,NNE,26,10.0,16.0,93,0.00,CLR,SKC,0.06,WeatherDisplay:10.37,2013-03-06 11:50:00,
2013-03-06 07:00:00,27.7,25.9,29.86,NNE,26,9.0,16.0,93,0.00,CLR,SKC,0.06,WeatherDisplay:10.37,2013-03-06 12:00:00,
2013-03-06 07:10:00,28.0,26.3,29.87,NNE,28,8.0,13.0,93,0.00,CLR,SKC,0.06,WeatherDisplay:10.37,2013-03-06 12:10:00,
2013-03-06 07:20:00,27.7,25.9,29.88,NNE,29,8.0,18.0,93,0.00,CLR,SKC,0.06,WeatherDisplay:10.37,2013-03-06 12:20:00,
2013-03-06 07:30:00,27.7,25.9,29.89,NNE,22,8.0,20.0,93,0.00,CLR,SKC,0.06,WeatherDisplay:10.37,2013-03-06 12:30:00,
2013-03-06 07:40:00,27.4,25.4,29.90,NNE,24,8.0,13.0,92,0.00,CLR,SKC,0.06,WeatherDisplay:10.37,2013-03-06 12:40:00,
2013-03-06 07:50:00,28.2,26.1,29.91,NNE,20,8.0,18.0,92,0.00,CLR,SKC,0.06,WeatherDisplay:10.37,2013-03-06 12:50:00,
2013-03-06 08:00:00,28.1,26.0,29.92,NNE,15,7.0,20.0,92,0.00,CLR,SKC,0.06,WeatherDisplay:10.37,2013-03-06 13:00:00,
2013-03-06 08:10:00,29.1,26.5,29.92,NNE,24,3.0,14.0,90,0.00,CLR,SKC,0.06,WeatherDisplay:10.37,2013-03-06 13:10:00,
2013-03-06 08:20:00,28.0,26.0,29.93,NNE,24,7.0,15.0,92,0.00,CLR,SKC,0.06,WeatherDisplay:10.37,2013-03-06 13:20:00,
2013-03-06 08:30:00,28.3,26.3,29.94,NNE,16,8.0,15.0,92,0.00,CLR,SKC,0.06,WeatherDisplay:10.37,2013-03-06 13:30:00,
2013-03-06 08:40:00,28.0,26.0,29.95,NNE,18,10.0,15.0,92,0.00,CLR,SKC,0.06,WeatherDisplay:10.37,2013-03-06 13:40:00,
2013-03-06 08:50:00,28.9,26.8,29.95,NNE,33,6.0,13.0,92,0.00,CLR,SKC,0.06,WeatherDisplay:10.37,2013-03-06 13:50:00,
2013-03-06 09:00:00,29.0,26.9,29.96,NNE,18,10.0,15.0,92,0.00,CLR,SKC,0.06,WeatherDisplay:10.37,2013-03-06 14:00:00,
2013-03-06 09:10:00,29.3,27.5,29.97,NNE,20,8.0,14.0,93,0.00,CLR,SKC,0.06,WeatherDisplay:10.37,2013-03-06 14:10:00,
2013-03-06 09:20:00,28.7,26.9,29.98,North,9,6.0,13.0,93,0.00,CLR,SKC,0.06,WeatherDisplay:10.37,2013-03-06 14:20:00,
2013-03-06 09:30:00,28.7,26.6,29.98,NNE,17,8.0,16.0,92,0.00,CLR,SKC,0.06,WeatherDisplay:10.37,2013-03-06 14:30:00,
2013-03-06 09:40:00,28.4,26.3,29.99,North,8,10.0,16.0,92,0.00,CLR,SKC,0.06,WeatherDisplay:10.37,2013-03-06 14:40:00,
2013-03-06 09:50:00,29.2,27.1,30.00,North,9,7.0,18.0,92,0.00,CLR,SKC,0.06,WeatherDisplay:10.37,2013-03-06 14:50:00,
2013-03-06 09:59:00,29.4,27.4,30.00,North,7,8.0,13.0,92,0.00,CLR,SKC,0.06,WeatherDisplay:10.37,2013-03-06 14:59:00,
2013-03-06 10:09:00,29.5,27.2,30.00,North,4,8.0,14.0,91,0.00,CLR,SKC,0.06,WeatherDisplay:10.37,2013-03-06 15:09:00,
2013-03-06 10:20:00,30.2,28.4,30.01,NNE,14,5.0,14.0,93,0.00,CLR,SKC,0.06,WeatherDisplay:10.37,2013-03-06 15:20:00,
2013-03-06 10:29:00,30.9,28.9,30.01,NNE,20,7.0,14.0,92,0.00,CLR,SKC,0.06,WeatherDisplay:10.37,2013-03-06 15:29:00,
2013-03-06 10:39:00,30.6,28.3,30.02,NNE,15,6.0,13.0,91,0.00,CLR,SKC,0.06,WeatherDisplay:10.37,2013-03-06 15:39:00,
2013-03-06 10:49:00,30.3,28.0,30.03,North,6,8.0,14.0,91,0.01,RA,SKC,0.07,WeatherDisplay:10.37,2013-03-06 15:49:00,
2013-03-06 10:59:00,30.2,27.9,30.03,North,3,8.0,13.0,91,0.02,RA,SKC,0.09,WeatherDisplay:10.37,2013-03-06 15:59:00,
2013-03-06 11:09:00,30.7,28.3,30.03,North,2,9.0,14.0,91,0.01,RA,SKC,0.10,WeatherDisplay:10.37,2013-03-06 16:09:00,
2013-03-06 11:19:00,32.0,29.9,30.03,North,5,7.0,12.0,92,0.02,RA,SKC,0.12,WeatherDisplay:10.37,2013-03-06 16:19:00,
2013-03-06 11:29:00,32.0,29.9,30.04,North,2,9.0,13.0,92,0.02,RA,SKC,0.14,WeatherDisplay:10.37,2013-03-06 16:29:00,
2013-03-06 11:39:00,32.0,29.9,30.05,NNE,12,8.0,14.0,92,0.01,RA,SKC,0.15,WeatherDisplay:10.37,2013-03-06 16:39:00,
2013-03-06 11:49:00,31.4,29.3,30.05,North,352,10.0,14.0,92,0.01,RA,SKC,0.16,WeatherDisplay:10.37,2013-03-06 16:49:00,
2013-03-06 12:00:00,31.4,29.1,30.05,North,10,8.0,13.0,91,0.01,RA,SKC,0.17,WeatherDisplay:10.37,2013-03-06 17:00:00,
2013-03-06 12:10:00,32.6,30.0,30.05,North,358,8.0,12.0,90,0.00,,SKC,0.17,WeatherDisplay:10.37,2013-03-06 17:10:00,
2013-03-06 12:20:00,32.5,29.3,30.05,North,358,8.0,16.0,88,0.00,CLR,SKC,0.17,WeatherDisplay:10.37,2013-03-06 17:20:00,
2013-03-06 12:30:00,33.9,30.1,30.05,North,5,9.0,14.0,86,0.00,CLR,SKC,0.17,WeatherDisplay:10.37,2013-03-06 17:30:00,
2013-03-06 12:40:00,33.3,29.6,30.06,North,1,8.0,15.0,86,0.00,CLR,SKC,0.17,WeatherDisplay:10.37,2013-03-06 17:40:00,
2013-03-06 12:50:00,33.6,30.1,30.06,North,355,8.0,13.0,87,0.00,CLR,SKC,0.17,WeatherDisplay:10.37,2013-03-06 17:50:00,
2013-03-06 13:01:00,33.3,29.8,30.06,NNW,346,8.0,14.0,87,0.00,CLR,SKC,0.17,WeatherDisplay:10.37,2013-03-06 18:01:00,
2013-03-06 13:10:00,33.6,29.6,30.07,North,351,9.0,14.0,85,0.00,CLR,SKC,0.17,WeatherDisplay:10.37,2013-03-06 18:10:00,
2013-03-06 13:20:00,34.3,30.5,30.07,NNW,342,12.0,15.0,86,0.00,CLR,SKC,0.17,WeatherDisplay:10.37,2013-03-06 18:20:00,
2013-03-06 13:30:00,33.7,30.2,30.06,NNW,348,5.0,15.0,87,0.00,CLR,SKC,0.17,WeatherDisplay:10.37,2013-03-06 18:30:00,
2013-03-06 13:40:00,34.1,30.1,30.06,NNW,342,10.0,15.0,85,0.00,CLR,SKC,0.17,WeatherDisplay:10.37,2013-03-06 18:40:00,
2013-03-06 13:50:00,34.2,29.2,30.06,North,3,8.0,14.0,82,0.00,CLR,SKC,0.17,WeatherDisplay:10.37,2013-03-06 18:50:00,
2013-03-06 14:00:00,34.5,29.9,30.06,North,4,8.0,15.0,83,0.00,CLR,SKC,0.17,WeatherDisplay:10.37,2013-03-06 19:00:00,
2013-03-06 14:10:00,34.9,30.0,30.08,North,6,1.0,11.0,82,0.00,CLR,SKC,0.17,WeatherDisplay:10.37,2013-03-06 19:10:00,
2013-03-06 14:20:00,32.4,28.1,30.08,North,350,9.0,15.0,84,0.00,CLR,SKC,0.17,WeatherDisplay:10.37,2013-03-06 19:20:00,
2013-03-06 14:30:00,34.1,29.5,30.08,North,0,7.0,13.0,83,0.00,CLR,SKC,0.17,WeatherDisplay:10.37,2013-03-06 19:30:00,
2013-03-06 14:40:00,34.3,30.3,30.08,North,352,2.0,14.0,85,0.00,CLR,SKC,0.17,WeatherDisplay:10.37,2013-03-06 19:40:00,
2013-03-06 14:50:00,35.2,30.9,30.08,NNW,336,6.0,11.0,84,0.00,CLR,SKC,0.17,WeatherDisplay:10.37,2013-03-06 19:50:00,
2013-03-06 15:00:00,34.4,30.4,30.08,NNW,348,6.0,12.0,85,0.00,CLR,SKC,0.17,WeatherDisplay:10.37,2013-03-06 20:00:00,
2013-03-06 15:10:00,33.8,29.7,30.09,NNW,347,3.0,12.0,85,0.00,CLR,SKC,0.17,WeatherDisplay:10.37,2013-03-06 20:10:00,
2013-03-06 15:20:00,34.3,30.0,30.09,North,353,9.0,13.0,84,0.00,CLR,SKC,0.17,WeatherDisplay:10.37,2013-03-06 20:20:00,
2013-03-06 15:30:00,34.8,30.2,30.09,NNW,328,6.0,11.0,83,0.00,CLR,SKC,0.17,WeatherDisplay:10.37,2013-03-06 20:30:00,
2013-03-06 15:40:00,34.4,30.1,30.09,NW,317,6.0,12.0,84,0.00,CLR,SKC,0.17,WeatherDisplay:10.37,2013-03-06 20:40:00,
2013-03-06 15:50:00,35.9,32.1,30.09,NW,310,3.0,14.0,86,0.00,CLR,SKC,0.17,WeatherDisplay:10.37,2013-03-06 20:50:00,
2013-03-06 16:00:00,32.5,28.8,30.10,NNW,335,7.0,11.0,86,0.00,CLR,SKC,0.17,WeatherDisplay:10.37,2013-03-06 21:00:00,
2013-03-06 16:10:00,33.5,29.5,30.10,NNW,329,7.0,12.0,85,0.00,CLR,SKC,0.17,WeatherDisplay:10.37,2013-03-06 21:10:00,
2013-03-06 16:20:00,32.6,29.2,30.10,NW,322,2.0,13.0,87,0.00,CLR,SKC,0.17,WeatherDisplay:10.37,2013-03-06 21:20:00,
2013-03-06 16:30:00,33.1,29.3,30.11,NW,322,8.0,15.0,86,0.00,CLR,SKC,0.17,WeatherDisplay:10.37,2013-03-06 21:30:00,
2013-03-06 16:40:00,33.6,29.8,30.11,NW,318,8.0,13.0,86,0.00,CLR,SKC,0.17,WeatherDisplay:10.37,2013-03-06 21:40:00,
2013-03-06 16:50:00,32.5,28.5,30.11,NNW,332,5.0,13.0,85,0.00,CLR,SKC,0.17,WeatherDisplay:10.37,2013-03-06 21:50:00,
2013-03-06 17:00:00,33.9,29.9,30.12,NW,323,3.0,9.0,85,0.00,CLR,SKC,0.17,WeatherDisplay:10.37,2013-03-06 22:00:00,
2013-03-06 17:10:00,33.3,29.0,30.12,NW,324,8.0,13.0,84,0.00,CLR,SKC,0.17,WeatherDisplay:10.37,2013-03-06 22:10:00,
2013-03-06 17:20:00,33.9,29.8,30.13,NW,317,7.0,13.0,85,0.00,CLR,SKC,0.17,WeatherDisplay:10.37,2013-03-06 22:20:00,
2013-03-06 17:30:00,32.4,28.4,30.13,NW,318,7.0,13.0,85,0.00,CLR,SKC,0.17,WeatherDisplay:10.37,2013-03-06 22:30:00,
2013-03-06 17:40:00,33.2,28.9,30.14,NW,316,6.0,15.0,84,0.00,CLR,SKC,0.17,WeatherDisplay:10.37,2013-03-06 22:40:00,
2013-03-06 17:50:00,32.7,28.7,30.14,NW,315,9.0,14.0,85,0.00,CLR,SKC,0.17,WeatherDisplay:10.37,2013-03-06 22:50:00,
2013-03-06 18:00:00,32.7,28.7,30.14,NW,320,3.0,13.0,85,0.00,CLR,SKC,0.17,WeatherDisplay:10.37,2013-03-06 23:00:00,
2013-03-06 18:10:00,32.6,28.6,30.14,NW,318,9.0,12.0,85,0.00,CLR,SKC,0.17,WeatherDisplay:10.37,2013-03-06 23:10:00,
2013-03-06 18:20:00,32.6,28.6,30.16,NW,326,9.0,12.0,85,0.00,CLR,SKC,0.17,WeatherDisplay:10.37,2013-03-06 23:20:00,
2013-03-06 18:30:00,31.9,28.5,30.16,NNW,327,7.0,12.0,87,0.00,CLR,SKC,0.17,WeatherDisplay:10.37,2013-03-06 23:30:00,
2013-03-06 18:40:00,32.2,28.7,30.16,NNW,329,6.0,12.0,87,0.00,CLR,SKC,0.17,WeatherDisplay:10.37,2013-03-06 23:40:00,
2013-03-06 18:50:00,31.5,27.8,30.16,NNW,332,5.0,9.0,86,0.00,CLR,SKC,0.17,WeatherDisplay:10.37,2013-03-06 23:50:00,
2013-03-06 19:00:00,32.9,29.1,30.16,NW,326,0.0,9.0,86,0.00,CLR,SKC,0.17,WeatherDisplay:10.37,2013-03-07 00:00:00,
2013-03-06 19:10:00,31.9,28.2,30.16,WNW,302,0.0,0.0,86,0.00,CLR,SKC,0.17,WeatherDisplay:10.37,2013-03-07 00:10:00,
2013-03-06 19:20:00,31.4,27.7,30.17,NW,323,0.0,8.0,86,0.00,CLR,SKC,0.17,WeatherDisplay:10.37,2013-03-07 00:20:00,
2013-03-06 19:30:00,32.4,28.7,30.17,NW,309,2.0,8.0,86,0.00,CLR,SKC,0.17,WeatherDisplay:10.37,2013-03-07 00:30:00,
2013-03-06 19:40:00,32.4,28.7,30.17,NW,323,1.0,9.0,86,0.00,CLR,SKC,0.17,WeatherDisplay:10.37,2013-03-07 00:40:00,
2013-03-06 19:50:00,32.3,28.8,30.18,WNW,300,1.0,8.0,87,0.00,CLR,SKC,0.17,WeatherDisplay:10.37,2013-03-07 00:50:00,
2013-03-06 20:00:00,32.5,28.8,30.17,NW,311,7.0,10.0,86,0.00,CLR,SKC,0.17,WeatherDisplay:10.37,2013-03-07 01:00:00,
2013-03-06 20:10:00,31.8,28.1,30.18,NW,313,7.0,10.0,86,0.00,CLR,SKC,0.17,WeatherDisplay:10.37,2013-03-07 01:10:00,
2013-03-06 20:20:00,32.2,28.8,30.18,WNW,300,0.0,8.0,87,0.00,CLR,SKC,0.17,WeatherDisplay:10.37,2013-03-07 01:20:00,
2013-03-06 20:30:00,32.9,29.4,30.18,NW,319,3.0,8.0,87,0.00,CLR,SKC,0.17,WeatherDisplay:10.37,2013-03-07 01:30:00,
2013-03-06 20:40:00,31.5,28.4,30.18,NW,304,0.0,3.0,88,0.00,CLR,SKC,0.17,WeatherDisplay:10.37,2013-03-07 01:40:00,
2013-03-06 20:50:00,32.0,28.8,30.18,WNW,300,1.0,8.0,88,0.00,CLR,SKC,0.17,WeatherDisplay:10.37,2013-03-07 01:50:00,
2013-03-06 21:00:00,32.5,29.4,30.19,NW,315,0.0,8.0,88,0.00,CLR,SKC,0.17,WeatherDisplay:10.37,2013-03-07 02:00:00,
2013-03-06 21:10:00,31.3,28.1,30.19,NW,309,1.0,9.0,88,0.00,CLR,SKC,0.17,WeatherDisplay:10.37,2013-03-07 02:10:00,
2013-03-06 21:20:00,32.4,29.3,30.19,West,279,1.0,9.0,88,0.00,CLR,SKC,0.17,WeatherDisplay:10.37,2013-03-07 02:20:00,
2013-03-06 21:30:00,32.3,28.8,30.19,NW,320,0.0,7.0,87,0.00,CLR,SKC,0.17,WeatherDisplay:10.37,2013-03-07 02:30:00,
2013-03-06 21:40:00,32.7,29.0,30.19,NW,315,0.0,8.0,86,0.00,CLR,SKC,0.17,WeatherDisplay:10.37,2013-03-07 02:40:00,
2013-03-06 21:50:00,31.0,27.6,30.19,NW,318,3.0,7.0,87,0.00,CLR,SKC,0.17,WeatherDisplay:10.37,2013-03-07 02:50:00,
2013-03-06 21:59:00,32.4,29.2,30.19,NW,325,0.0,6.0,88,0.00,CLR,SKC,0.17,WeatherDisplay:10.37,2013-03-07 02:59:00,
2013-03-06 22:09:00,31.8,28.7,30.19,NW,310,0.0,3.0,88,0.00,CLR,SKC,0.17,WeatherDisplay:10.37,2013-03-07 03:09:00,
2013-03-06 22:20:00,32.5,29.3,30.19,West,274,0.0,3.0,88,0.00,CLR,SKC,0.17,WeatherDisplay:10.37,2013-03-07 03:20:00,
2013-03-06 22:29:00,31.6,28.5,30.19,WNW,302,0.0,3.0,88,0.00,CLR,SKC,0.17,WeatherDisplay:10.37,2013-03-07 03:29:00,
2013-03-06 22:39:00,31.7,28.8,30.19,NW,305,0.0,0.0,89,0.00,CLR,SKC,0.17,WeatherDisplay:10.37,2013-03-07 03:39:00,
2013-03-06 22:49:00,31.4,28.8,30.19,NW,305,0.0,0.0,90,0.00,CLR,SKC,0.17,WeatherDisplay:10.37,2013-03-07 03:49:00,
2013-03-06 22:59:00,31.5,28.9,30.19,NW,305,0.0,0.0,90,0.00,CLR,SKC,0.17,WeatherDisplay:10.37,2013-03-07 03:59:00,
2013-03-06 23:09:00,31.7,29.1,30.19,NW,305,0.0,0.0,90,0.00,CLR,SKC,0.17,WeatherDisplay:10.37,2013-03-07 04:09:00,
2013-03-06 23:19:00,32.2,29.6,30.19,NW,305,0.0,0.0,90,0.00,CLR,SKC,0.17,WeatherDisplay:10.37,2013-03-07 04:19:00,
2013-03-06 23:29:00,31.3,28.4,30.18,NW,305,0.0,0.0,89,0.00,CLR,SKC,0.17,WeatherDisplay:10.37,2013-03-07 04:29:00,
2013-03-06 23:39:00,31.7,28.5,30.18,NW,305,0.0,0.0,88,0.00,CLR,SKC,0.17,WeatherDisplay:10.37,2013-03-07 04:39:00,
2013-03-06 23:49:00,32.2,29.4,30.17,NW,305,0.0,0.0,89,0.00,CLR,SKC,0.17,WeatherDisplay:10.37,2013-03-07 04:49:00,
2013-03-06 23:59:00,32.4,29.5,30.17,NW,305,0.0,0.0,89,0.00,RA,SKC,0.00,WeatherDisplay:10.37,2013-03-07 04:59:00,